Time;durP1;ratioP1;P1;durP2;ratioP2;P2;SDS_P1;SDS_P2;PMS_P1;PMS_P2;Temp;Humidity;BMP_temperature;BMP_pressure;BME280_temperature;BME280_humidity;BME280_pressure;Samples;Min_cycle;Max_cycle;Signal;HPM_P1;HPM_P2
2022/03/18 00:04:44;;;;;;;25.85;20.13;;;;;;;8.91;42.69;99453.88;12829084;23;20021;-79
2022/03/18 00:10:07;;;;;;;32.50;20.20;;;;;;;8.88;43.07;99452.94;12773663;23;20008;-78
2022/03/18 00:15:28;;;;;;;29.35;19.33;;;;;;;8.83;42.54;99460.09;12773544;23;20031;-79
2022/03/18 00:20:49;;;;;;;28.55;20.58;;;;;;;8.84;42.77;99467.16;12773830;23;20021;-81
2022/03/18 00:26:10;;;;;;;28.13;19.83;;;;;;;8.79;43.29;99465.28;12794800;23;20021;-79
2022/03/18 00:31:36;;;;;;;33.40;21.80;;;;;;;8.74;43.14;99463.34;12755528;23;20032;-80
2022/03/18 00:36:57;;;;;;;29.40;20.98;;;;;;;8.66;43.26;99465.31;12778196;23;20025;-80
2022/03/18 00:42:18;;;;;;;28.50;20.88;;;;;;;8.61;43.79;99468.97;12793910;23;20022;-80
2022/03/18 00:53:18;;;;;;;31.77;21.75;;;;;;;8.54;44.24;99466.84;12777462;23;20025;-80
2022/03/18 00:58:39;;;;;;;31.00;21.55;;;;;;;8.51;44.41;99479.81;12814883;23;20022;-79
2022/03/18 01:04:00;;;;;;;31.98;23.55;;;;;;;8.45;44.47;99481.22;12813793;23;20029;-80
2022/03/18 01:09:22;;;;;;;36.85;22.92;;;;;;;8.36;45.20;99479.63;12797466;23;20012;-79
2022/03/18 01:14:42;;;;;;;31.20;22.35;;;;;;;8.33;44.57;99486.25;12818537;23;20026;-80
2022/03/18 01:20:04;;;;;;;34.75;24.00;;;;;;;8.26;44.84;99484.88;12818564;23;20001;-80
2022/03/18 01:25:25;;;;;;;39.28;24.42;;;;;;;8.19;45.57;99481.97;12777128;23;20021;-79
2022/03/18 01:30:46;;;;;;;32.35;23.70;;;;;;;8.07;45.65;99483.50;12777257;23;20021;-80
2022/03/18 01:36:06;;;;;;;31.13;22.98;;;;;;;7.96;45.81;99488.00;12743539;23;20009;-79
2022/03/18 01:41:27;;;;;;;30.30;22.70;;;;;;;7.89;46.16;99490.66;12756621;23;20053;-79
2022/03/18 01:46:48;;;;;;;35.33;22.75;;;;;;;7.87;46.15;99490.47;12736548;23;20037;-80
2022/03/18 01:52:10;;;;;;;33.05;24.42;;;;;;;7.86;46.40;99500.09;12797252;23;20001;-78
2022/03/18 01:57:31;;;;;;;38.78;26.08;;;;;;;7.85;46.41;99509.72;12756514;23;20001;-78
2022/03/18 02:02:52;;;;;;;34.92;25.27;;;;;;;7.80;46.90;99511.31;12735723;23;20029;-80
2022/03/18 02:08:15;;;;;;;36.65;26.90;;;;;;;7.70;46.92;99522.09;12756333;23;20008;-78
2022/03/18 02:13:36;;;;;;;34.25;25.52;;;;;;;7.61;47.43;99525.28;12776541;23;20002;-79
2022/03/18 02:18:57;;;;;;;38.33;26.45;;;;;;;7.51;47.79;99524.19;12756468;23;20364;-80
2022/03/18 02:24:19;;;;;;;37.92;25.92;;;;;;;7.47;48.19;99530.09;12797255;23;20057;-80
2022/03/18 02:29:41;;;;;;;39.50;26.13;;;;;;;7.44;48.26;99535.97;12776283;23;20001;-79
2022/03/18 02:35:04;;;;;;;34.72;24.75;;;;;;;7.39;48.40;99537.53;12748710;23;20021;-77
2022/03/18 02:40:26;;;;;;;34.58;25.25;;;;;;;7.38;48.34;99551.97;12776657;23;20009;-80
2022/03/18 02:45:47;;;;;;;37.58;26.60;;;;;;;7.29;48.75;99547.56;12776154;23;20021;-80
2022/03/18 02:51:08;;;;;;;37.40;25.83;;;;;;;7.23;48.78;99544.09;12796815;23;20021;-80
2022/03/18 02:56:30;;;;;;;38.92;26.98;;;;;;;7.23;49.17;99544.09;12755593;23;20009;-79
2022/03/18 03:01:51;;;;;;;41.58;27.92;;;;;;;7.17;49.38;99554.56;12756172;23;20006;-80
2022/03/18 03:25:55;;;;;;;37.38;27.83;;;;;;;6.85;50.58;99580.28;12735137;23;20057;-82
2022/03/18 03:31:50;;;;;;;39.58;27.98;;;;;;;6.80;51.02;99585.88;12711065;23;20982;31
2022/03/18 03:37:14;;;;;;;39.08;28.23;;;;;;;6.73;51.08;99592.78;12755708;23;20026;-78
2022/03/18 03:42:35;;;;;;;53.08;33.75;;;;;;;6.64;51.58;99600.72;12715407;23;20021;-80
2022/03/18 03:54:13;;;;;;;;;;;;;;;6.64;53.25;99620.91;12858306;23;20268;-80
2022/03/18 04:11:57;;;;;;;58.88;39.78;;;;;;;6.54;52.92;99634.38;12812919;23;20035;-76
2022/03/18 04:17:19;;;;;;;61.22;41.28;;;;;;;6.48;53.26;99641.28;12816850;23;20119;-79
2022/03/18 04:22:41;;;;;;;56.13;39.38;;;;;;;6.42;53.38;99646.88;12796274;23;20001;-81
2022/03/18 04:28:03;;;;;;;54.00;39.08;;;;;;;6.38;53.21;99651.97;12816671;23;20017;-78
2022/03/18 04:33:24;;;;;;;58.58;39.20;;;;;;;6.41;53.73;99664.06;12857409;23;20017;-80
2022/03/18 04:38:45;;;;;;;54.97;38.50;;;;;;;6.39;53.80;99677.69;12819161;23;20019;-81
2022/03/18 04:44:07;;;;;;;58.03;39.30;;;;;;;6.34;53.95;99675.72;12799851;23;20005;-77
2022/03/18 04:55:47;;;;;;;51.95;36.50;;;;;;;6.21;53.93;99690.22;12987070;22;20020;-80
2022/03/18 05:01:09;;;;;;;55.58;37.45;;;;;;;6.25;53.82;99701.75;12924228;22;20019;-78
2022/03/18 05:06:31;;;;;;;55.50;36.83;;;;;;;6.21;54.25;99698.53;12869215;23;20007;-79
2022/03/18 05:11:54;;;;;;;54.72;37.13;;;;;;;6.16;54.08;99708.41;12902710;23;20005;-79
2022/03/18 05:17:15;;;;;;;54.75;36.78;;;;;;;6.17;53.96;99706.38;12902430;23;20000;-77
2022/03/18 05:22:37;;;;;;;52.22;36.65;;;;;;;6.18;54.18;99719.75;12856926;23;20077;-81
2022/03/18 05:27:59;;;;;;;61.47;37.92;;;;;;;6.19;54.20;99723.28;12861046;23;20028;-81
2022/03/18 05:33:21;;;;;;;56.63;38.50;;;;;;;6.28;54.22;99720.16;12901827;23;20005;-81
2022/03/18 05:38:43;;;;;;;57.42;37.65;;;;;;;6.41;54.60;99731.38;12882042;23;20001;-80
2022/03/18 05:44:07;;;;;;;52.90;37.70;;;;;;;6.58;54.09;99742.31;12881603;23;20007;-80
2022/03/18 05:49:32;;;;;;;56.35;38.28;;;;;;;6.75;53.90;99753.22;12877853;23;20005;-79
2022/03/18 05:54:56;;;;;;;55.72;37.10;;;;;;;6.95;54.29;99754.78;12881578;22;20051;-78
2022/03/18 06:00:19;;;;;;;57.33;37.47;;;;;;;7.14;54.12;99763.91;12901692;22;20020;-80
2022/03/18 06:05:42;;;;;;;56.05;38.22;;;;;;;7.38;53.91;99768.66;12870283;22;20056;-77
2022/03/18 06:16:50;;;;;;;53.35;37.22;;;;;;;8.00;53.48;99796.38;12904999;22;20261;-82
2022/03/18 06:22:11;;;;;;;55.88;38.88;;;;;;;8.29;53.21;99795.41;12880070;23;20005;-80
2022/03/18 06:27:34;;;;;;;56.33;39.00;;;;;;;8.65;52.71;99809.03;12900943;22;20008;-79
2022/03/18 06:32:55;;;;;;;55.92;39.55;;;;;;;9.05;51.92;99817.44;12900080;23;20000;-79
2022/03/18 06:38:17;;;;;;;56.42;39.08;;;;;;;9.48;51.80;99828.25;12898108;22;20016;-79
2022/03/18 06:43:39;;;;;;;58.50;38.63;;;;;;;9.99;51.23;99825.13;12878478;23;20032;-79
2022/03/18 06:49:00;;;;;;;53.67;39.53;;;;;;;10.50;50.86;99839.44;12917726;23;20044;-80
2022/03/18 06:54:21;;;;;;;53.38;39.22;;;;;;;10.99;49.27;99833.13;12855445;23;20025;-80
2022/03/18 06:59:42;;;;;;;54.42;37.95;;;;;;;11.40;49.21;99848.31;12909003;23;20451;-79
2022/03/18 07:05:03;;;;;;;53.05;39.53;;;;;;;11.62;47.78;99858.88;12903235;23;20040;-80
2022/03/18 07:10:25;;;;;;;50.70;39.40;;;;;;;11.87;47.44;99873.19;12912912;23;20021;-82
2022/03/18 07:15:46;;;;;;;51.42;39.50;;;;;;;12.28;47.82;99872.19;12873121;23;20027;-83
2022/03/18 07:21:07;;;;;;;54.28;38.30;;;;;;;12.71;44.91;99876.19;12872291;23;20027;-81
2022/03/18 07:26:28;;;;;;;50.60;38.15;;;;;;;12.90;45.76;99873.75;12892119;23;20024;-81
2022/03/18 07:31:51;;;;;;;49.90;39.13;;;;;;;13.01;45.24;99883.84;12915513;23;20040;-82
2022/03/18 07:37:12;;;;;;;48.95;38.22;;;;;;;13.03;45.73;99883.31;12894727;23;20027;-80
2022/03/18 07:42:46;;;;;;;50.05;37.90;;;;;;;12.97;45.21;99889.09;12873974;23;20012;-82
2022/03/18 07:48:08;;;;;;;49.10;38.88;;;;;;;12.78;45.54;99902.72;12855641;23;20013;-81
2022/03/18 07:53:29;;;;;;;49.05;38.92;;;;;;;12.90;45.75;99895.44;12862026;23;20008;-81
2022/03/18 07:58:50;;;;;;;52.08;40.50;;;;;;;13.31;45.29;99902.72;12854737;23;20025;-82
2022/03/18 08:04:13;;;;;;;51.50;39.10;;;;;;;13.66;45.10;99906.59;12897543;23;20005;-81
2022/03/18 08:09:34;;;;;;;53.42;40.28;;;;;;;13.81;44.51;99917.03;12940374;23;20052;-80
2022/03/18 08:15:40;;;;;;;51.38;39.83;;;;;;;14.27;43.89;99911.97;12847372;22;20727;31
2022/03/18 08:21:02;;;;;;;50.15;40.15;;;;;;;14.79;43.29;99929.13;12801068;22;20327;-77
2022/03/18 08:26:23;;;;;;;49.08;40.25;;;;;;;15.78;43.17;99935.97;12855165;23;20017;-85
2022/03/18 08:31:45;;;;;;;48.33;38.13;;;;;;;17.02;41.94;99945.09;12798481;23;20024;-83
2022/03/18 08:37:06;;;;;;;44.35;37.40;;;;;;;18.80;39.97;99951.13;12819544;23;20012;-82
2022/03/18 08:42:26;;;;;;;45.92;35.58;;;;;;;20.46;36.19;99949.47;12839948;23;20016;-83
2022/03/18 08:47:47;;;;;;;41.67;36.63;;;;;;;21.52;36.30;99961.66;12838991;23;20012;-84
2022/03/18 08:53:11;;;;;;;41.15;36.65;;;;;;;21.86;34.31;99968.63;12838783;23;20027;-84
2022/03/18 08:58:32;;;;;;;44.85;37.72;;;;;;;21.57;33.40;99977.59;12820056;23;20013;-83
2022/03/18 09:03:53;;;;;;;44.45;38.00;;;;;;;21.59;33.64;99974.84;12816799;23;20628;-83
2022/03/18 09:09:14;;;;;;;44.75;37.38;;;;;;;20.35;34.16;99982.09;12819382;23;20060;-84
2022/03/18 09:14:35;;;;;;;45.53;36.83;;;;;;;23.67;31.69;99982.16;12859851;23;20023;-82
2022/03/18 09:19:55;;;;;;;42.20;35.35;;;;;;;24.23;29.27;99986.34;12839793;23;20019;-83
2022/03/18 09:25:16;;;;;;;40.78;34.53;;;;;;;25.34;29.12;99990.13;12841711;23;20328;-83
2022/03/18 09:30:37;;;;;;;38.00;33.72;;;;;;;25.86;27.19;99993.81;12863938;23;20328;-83
2022/03/18 09:35:58;;;;;;;39.08;34.83;;;;;;;24.28;27.38;99979.44;12822230;23;20053;-83
2022/03/18 09:41:19;;;;;;;39.35;35.15;;;;;;;22.84;27.56;99989.84;12841791;23;20017;-84
2022/03/18 09:46:42;;;;;;;40.38;34.83;;;;;;;23.47;27.73;99989.63;12842716;23;20023;-83
2022/03/18 09:52:04;;;;;;;41.72;36.75;;;;;;;21.52;27.94;99993.66;12822066;23;20020;-82
2022/03/18 09:57:25;;;;;;;39.45;35.15;;;;;;;22.38;29.55;99993.66;12821883;23;20017;-83
2022/03/18 10:02:46;;;;;;;38.95;34.70;;;;;;;23.02;27.24;100007.19;12862444;23;20403;-83
2022/03/18 10:08:06;;;;;;;39.80;33.50;;;;;;;21.90;28.46;100012.22;12801048;23;20027;-83
2022/03/18 10:13:27;;;;;;;42.22;34.88;;;;;;;23.82;27.98;100019.91;12841973;23;20405;-83
2022/03/18 10:18:48;;;;;;;40.50;34.75;;;;;;;23.28;27.11;100022.13;12821865;23;20298;-82
2022/03/18 10:24:09;;;;;;;42.22;35.67;;;;;;;23.69;25.85;100030.72;12824342;23;20091;-82
2022/03/18 10:29:38;;;;;;;39.53;34.47;;;;;;;20.82;27.90;100027.66;12840805;23;20013;-84
2022/03/18 10:40:38;;;;;;;46.80;38.25;;;;;;;21.60;27.74;100021.81;12829019;23;20017;-83
2022/03/18 10:46:05;;;;;;;48.17;38.97;;;;;;;19.98;28.54;100030.00;12840821;23;20424;-84
2022/03/18 10:51:26;;;;;;;50.00;39.60;;;;;;;21.37;29.40;100031.81;12821156;23;20071;-84
2022/03/18 10:56:57;;;;;;;49.50;40.65;;;;;;;21.15;28.49;100030.44;12840919;23;20016;-85
2022/03/18 11:02:19;;;;;;;48.70;40.58;;;;;;;20.74;29.16;100027.88;12842243;23;20020;-82
2022/03/18 11:07:43;;;;;;;51.23;41.67;;;;;;;22.11;28.77;100011.38;12802990;23;20013;-83
2022/03/18 11:13:04;;;;;;;49.97;41.85;;;;;;;22.23;27.41;100019.84;12821283;23;20428;-83
2022/03/18 11:18:27;;;;;;;51.22;42.85;;;;;;;22.34;27.94;100024.75;12820541;23;20071;-83
2022/03/18 11:23:48;;;;;;;50.85;41.95;;;;;;;22.24;27.70;100015.63;12845820;23;20024;-84
2022/03/18 11:29:13;;;;;;;48.22;41.22;;;;;;;22.83;27.76;100022.53;12819932;23;20020;-83
2022/03/18 11:34:50;;;;;;;49.65;43.40;;;;;;;23.51;26.45;100026.88;12821625;23;20313;-84
2022/03/18 11:40:22;;;;;;;56.15;45.50;;;;;;;22.94;26.51;100028.78;12861782;23;20427;-83
2022/03/18 11:45:43;;;;;;;56.10;47.27;;;;;;;21.97;27.12;100016.91;12883016;23;20338;-80
2022/03/18 11:51:33;;;;;;;59.95;47.00;;;;;;;21.49;27.69;100011.19;12837109;23;20017;-83
2022/03/18 11:56:54;;;;;;;54.72;45.70;;;;;;;21.38;27.98;100013.44;12837296;23;20025;-81
2022/03/18 12:02:15;;;;;;;51.92;44.17;;;;;;;21.57;28.30;100018.09;12817596;23;20335;-79
2022/03/18 12:07:49;;;;;;;57.35;47.88;;;;;;;21.68;27.78;100010.94;12800960;23;20055;-79
2022/03/18 12:13:10;;;;;;;54.85;47.28;;;;;;;21.13;27.95;100013.25;12799335;23;20024;-79
2022/03/18 12:18:32;;;;;;;59.17;45.80;;;;;;;21.09;28.32;100001.66;12860873;23;20083;-79
2022/03/18 12:24:08;;;;;;;62.78;48.88;;;;;;;20.70;28.60;100007.75;12822131;23;20035;-80
2022/03/18 12:29:29;;;;;;;58.90;49.05;;;;;;;20.22;29.22;100008.91;12799990;23;20021;-80
2022/03/18 12:34:51;;;;;;;56.22;47.90;;;;;;;20.69;28.94;99999.88;12839735;23;20012;-84
2022/03/18 12:40:14;;;;;;;60.72;50.33;;;;;;;20.13;29.25;100001.25;12798918;23;20023;-83
2022/03/18 12:45:42;;;;;;;58.30;48.20;;;;;;;20.16;29.08;99999.28;12818604;23;20019;-83
2022/03/18 12:51:03;;;;;;;61.03;50.00;;;;;;;19.63;29.37;100001.44;12819299;23;20017;-83
2022/03/18 12:56:28;;;;;;;64.75;50.67;;;;;;;19.25;29.91;99997.44;12838115;23;20420;-85
2022/03/18 13:01:56;;;;;;;61.42;51.00;;;;;;;18.55;30.11;99996.75;12841453;23;20020;-86
2022/03/18 13:07:18;;;;;;;64.70;51.22;;;;;;;17.84;31.43;100000.75;12799453;23;20020;-83
2022/03/18 13:12:52;;;;;;;61.08;50.83;;;;;;;17.80;31.85;100000.44;12845980;23;20071;-85
2022/03/18 13:18:18;;;;;;;60.55;48.13;;;;;;;17.74;31.64;100003.56;12819895;23;20024;-85
2022/03/18 13:23:40;;;;;;;52.22;42.92;;;;;;;17.69;31.95;100001.78;12820046;23;20090;-82
2022/03/18 13:29:00;;;;;;;47.40;39.58;;;;;;;17.01;31.89;99992.31;12861530;23;20027;-83
2022/03/18 13:34:32;;;;;;;49.50;40.47;;;;;;;16.56;32.32;99993.66;12840030;23;20055;-86
2022/03/18 13:40:07;;;;;;;48.00;39.33;;;;;;;16.70;32.78;99980.00;12819856;23;20012;-87
2022/03/18 13:45:28;;;;;;;46.70;38.22;;;;;;;16.68;32.63;99983.38;12820820;23;20020;-87
2022/03/18 13:50:49;;;;;;;45.53;37.00;;;;;;;16.93;32.48;99980.41;12838847;23;20339;-83
2022/03/18 13:56:30;;;;;;;46.08;38.20;;;;;;;16.88;32.10;99984.22;12788947;23;20471;-85
2022/03/18 14:02:01;;;;;;;45.63;35.65;;;;;;;16.74;32.18;99985.94;12818058;23;20055;-86
2022/03/18 14:07:42;;;;;;;47.65;34.80;;;;;;;16.52;32.41;99979.25;12818562;23;20017;-85
2022/03/18 14:13:17;;;;;;;42.80;34.45;;;;;;;16.32;32.27;99972.75;12744875;23;20459;-79
2022/03/18 14:18:50;;;;;;;39.72;32.33;;;;;;;16.28;32.54;99973.16;12772413;23;20025;-78
2022/03/18 14:24:11;;;;;;;41.17;30.73;;;;;;;16.50;32.48;99967.78;12770589;23;20393;-81
2022/03/18 14:29:41;;;;;;;37.15;30.70;;;;;;;16.51;32.16;99966.50;12821833;23;20035;-79
2022/03/18 14:35:03;;;;;;;36.10;27.90;;;;;;;16.44;32.21;99964.50;12843817;23;20024;-77
2022/03/18 14:40:35;;;;;;;39.78;28.83;;;;;;;16.31;32.30;99957.91;12815853;23;20013;-80
2022/03/18 14:46:09;;;;;;;39.00;28.90;;;;;;;16.14;32.07;99960.00;12808900;23;20587;-78
2022/03/18 15:03:51;;;;;;;34.42;25.55;;;;;;;15.26;32.31;99955.59;12864116;23;20016;-75
2022/03/18 15:09:46;;;;;;;34.25;24.77;;;;;;;15.14;32.52;99960.91;12762111;22;20017;31
2022/03/18 15:15:32;;;;;;;31.75;23.85;;;;;;;14.92;32.50;99967.47;12734695;22;20835;31
2022/03/18 15:27:26;;;;;;;27.55;20.90;;;;;;;14.56;31.89;99963.00;12733269;23;21036;31
2022/03/18 15:32:46;;;;;;;24.65;17.92;;;;;;;14.18;31.61;99977.19;12743227;23;20047;-83
2022/03/18 15:38:09;;;;;;;22.27;16.30;;;;;;;13.81;31.29;99972.44;12876167;23;20016;-83
2022/03/18 15:43:30;;;;;;;23.77;16.23;;;;;;;13.68;31.41;99973.38;12875313;23;20012;-84
2022/03/18 15:48:51;;;;;;;28.92;18.73;;;;;;;13.58;30.91;99972.47;12916291;23;20043;-86
2022/03/18 15:54:13;;;;;;;25.88;17.27;;;;;;;13.45;30.83;99976.22;12853494;23;20001;-84
2022/03/18 15:59:35;;;;;;;26.45;18.00;;;;;;;13.28;30.75;99982.38;12852481;23;20024;-84
2022/03/18 16:04:57;;;;;;;26.67;18.42;;;;;;;13.15;30.64;99999.38;12866864;23;20001;-78
2022/03/18 16:10:19;;;;;;;23.80;16.70;;;;;;;12.91;30.43;99995.03;12790308;23;20005;-81
2022/03/18 16:15:41;;;;;;;24.77;17.95;;;;;;;12.66;30.83;100006.00;12841586;23;20065;-83
2022/03/18 16:21:05;;;;;;;27.45;17.17;;;;;;;12.53;30.81;100015.28;12869352;23;20059;-79
2022/03/18 16:26:26;;;;;;;27.80;18.88;;;;;;;12.36;30.97;100012.25;12871109;23;20020;-81
2022/03/18 16:31:47;;;;;;;32.65;19.38;;;;;;;12.17;31.23;100023.72;12850133;23;20047;-83
2022/03/18 16:37:08;;;;;;;29.95;20.52;;;;;;;11.99;31.24;100035.94;12853778;23;20047;-82
2022/03/18 16:42:29;;;;;;;30.77;18.67;;;;;;;11.85;31.30;100037.31;12856273;23;20023;-80
2022/03/18 16:53:30;;;;;;;28.02;20.48;;;;;;;11.58;32.03;100043.09;12889903;23;20017;-80
2022/03/18 16:58:51;;;;;;;31.17;20.10;;;;;;;11.38;32.26;100043.84;12894400;23;20051;-82
2022/03/18 17:04:12;;;;;;;33.17;21.50;;;;;;;11.24;32.66;100068.31;12894421;23;20412;-82
2022/03/18 17:09:34;;;;;;;31.42;21.02;;;;;;;11.03;32.64;100078.72;12898702;23;20024;-82
2022/03/18 17:14:55;;;;;;;34.58;21.88;;;;;;;10.87;33.01;100080.59;12861584;23;20091;-80
2022/03/18 17:20:16;;;;;;;32.70;21.73;;;;;;;10.75;33.08;100093.31;12849197;23;20032;-79
2022/03/18 17:25:38;;;;;;;32.92;20.88;;;;;;;10.64;33.48;100094.28;12871895;23;20040;-81
2022/03/18 17:31:00;;;;;;;33.25;20.67;;;;;;;10.51;34.07;100109.00;12869880;23;20043;-83
2022/03/18 17:36:22;;;;;;;32.00;21.88;;;;;;;10.36;34.10;100108.81;12870273;23;20083;-81
2022/03/18 17:41:43;;;;;;;30.80;20.58;;;;;;;10.26;34.17;100102.16;12822856;23;20032;-81
2022/03/18 17:47:05;;;;;;;39.03;20.65;;;;;;;10.19;34.75;100128.63;12876566;23;20049;-78
2022/03/18 17:52:26;;;;;;;33.42;20.60;;;;;;;10.07;34.53;100124.56;12891854;23;20009;-80
2022/03/18 17:57:47;;;;;;;30.85;20.75;;;;;;;9.99;34.54;100143.22;12875521;23;20005;-81
2022/03/18 18:03:08;;;;;;;34.60;20.55;;;;;;;9.91;35.07;100142.31;12879843;23;20052;-80
2022/03/18 18:08:28;;;;;;;28.05;19.05;;;;;;;9.95;35.02;100145.56;12877469;23;20000;-81
2022/03/18 18:13:53;;;;;;;30.20;20.27;;;;;;;10.00;35.05;100144.72;12891668;23;20071;-81
2022/03/18 18:24:55;;;;;;;31.92;20.58;;;;;;;9.99;35.45;100157.16;12880674;23;20001;-85
2022/03/18 18:42:48;;;;;;;34.33;20.92;;;;;;;10.00;34.97;100173.34;12850182;22;20051;-81
2022/03/18 18:48:09;;;;;;;29.75;19.83;;;;;;;9.95;34.97;100181.84;12878618;23;20021;-78
2022/03/18 18:53:31;;;;;;;26.08;18.55;;;;;;;9.91;35.35;100179.34;12877837;23;20021;-81
2022/03/18 18:58:53;;;;;;;31.63;20.98;;;;;;;9.71;35.50;100185.50;12831871;23;20028;-77
2022/03/18 19:04:14;;;;;;;32.92;20.20;;;;;;;9.53;35.35;100186.28;12856100;23;20025;-79
2022/03/18 19:09:35;;;;;;;32.03;20.00;;;;;;;9.40;35.74;100195.34;12877384;23;20040;-79
2022/03/18 19:14:55;;;;;;;31.70;20.27;;;;;;;9.21;35.75;100195.34;12881159;23;20071;-83
2022/03/18 19:20:17;;;;;;;29.48;19.60;;;;;;;9.06;36.02;100184.63;12898922;23;20015;-81
2022/03/18 19:25:38;;;;;;;29.98;19.88;;;;;;;8.97;35.77;100198.19;12898371;23;20028;-82
2022/03/18 19:31:04;;;;;;;33.58;18.00;;;;;;;8.93;36.01;100186.59;12900206;23;20413;-80
2022/03/18 19:36:26;;;;;;;34.25;19.35;;;;;;;8.81;35.90;100192.31;12858028;23;20000;-81
2022/03/18 19:41:53;;;;;;;30.20;19.83;;;;;;;8.71;36.07;100205.09;12877763;23;20020;-78
2022/03/18 19:47:15;;;;;;;28.67;20.20;;;;;;;8.60;36.14;100197.59;12900182;23;20005;-81
2022/03/18 19:52:36;;;;;;;29.63;19.23;;;;;;;8.52;36.04;100215.41;12899541;23;20004;-81
2022/03/18 20:03:36;;;;;;;29.00;18.92;;;;;;;8.40;36.75;100219.59;12901345;23;20005;-82
2022/03/18 20:08:58;;;;;;;31.27;19.08;;;;;;;8.36;36.50;100227.44;12877548;23;20004;-81
2022/03/18 20:14:19;;;;;;;26.33;17.30;;;;;;;8.27;36.79;100232.03;12857415;23;20011;-79
2022/03/18 20:19:40;;;;;;;30.02;19.92;;;;;;;8.23;36.71;100234.38;12891917;23;20036;-81
2022/03/18 20:25:01;;;;;;;32.05;20.95;;;;;;;8.13;37.17;100241.53;12895267;23;20017;-80
2022/03/18 20:30:22;;;;;;;34.17;20.70;;;;;;;8.10;37.21;100242.56;12874033;23;20044;-81
2022/03/18 20:35:43;;;;;;;39.25;25.08;;;;;;;7.96;37.15;100243.69;12850744;23;20009;-79
2022/03/18 20:41:04;;;;;;;38.65;22.15;;;;;;;7.88;37.13;100246.28;12867672;23;20016;-77
2022/03/18 20:46:25;;;;;;;31.08;20.00;;;;;;;7.82;37.21;100250.38;12872984;23;20024;-80
2022/03/18 20:51:45;;;;;;;34.30;21.30;;;;;;;7.70;37.31;100249.69;12896607;23;20000;-81
2022/03/18 20:57:06;;;;;;;29.90;19.67;;;;;;;7.63;37.59;100247.47;12889782;23;20048;-79
2022/03/18 21:02:27;;;;;;;32.20;20.58;;;;;;;7.55;37.84;100250.03;12854638;23;20439;-82
2022/03/18 21:07:49;;;;;;;33.15;20.35;;;;;;;7.49;38.05;100249.31;12897099;23;20027;-82
2022/03/18 21:13:10;;;;;;;31.77;21.75;;;;;;;7.45;38.43;100246.06;12898277;23;20012;-80
2022/03/18 21:18:31;;;;;;;33.80;21.63;;;;;;;7.43;38.24;100246.56;12879083;23;20008;-83
2022/03/18 21:23:52;;;;;;;32.65;20.73;;;;;;;7.35;38.52;100247.63;12901008;23;20013;-79
2022/03/18 21:34:56;;;;;;;34.65;20.77;;;;;;;7.23;38.64;100252.44;12888407;23;20001;-81
2022/03/18 21:40:17;;;;;;;34.33;20.83;;;;;;;7.14;38.63;100253.53;12899492;23;20008;-79
2022/03/18 21:45:42;;;;;;;31.17;20.63;;;;;;;7.06;38.62;100251.78;12859072;23;20005;-79
2022/03/18 21:51:04;;;;;;;32.85;20.92;;;;;;;6.98;39.17;100259.88;12880068;23;20024;-80
2022/03/18 21:56:25;;;;;;;32.00;20.42;;;;;;;6.90;39.32;100258.91;12899371;23;20008;-78
2022/03/18 22:01:47;;;;;;;30.25;20.10;;;;;;;6.86;39.26;100258.41;12901812;23;20016;-83
2022/03/18 22:07:08;;;;;;;31.08;20.83;;;;;;;6.77;39.47;100255.91;12865051;23;20027;-80
2022/03/18 22:12:28;;;;;;;31.92;19.95;;;;;;;6.70;39.32;100251.63;12880215;23;20039;-83
2022/03/18 22:17:49;;;;;;;32.05;18.80;;;;;;;6.67;39.69;100246.34;12901134;23;20020;-84
